sensor_id;sensor_type;location;lat;lon;timestamp;P1;durP1;ratioP1;P2;durP2;ratioP2
23015;SDS011;11674;52.428;13.584;2023-10-13T00:02:16;7.30;;;2.88;;
23015;SDS011;11674;52.428;13.584;2023-10-13T00:07:23;7.10;;;2.70;;
23015;SDS011;11674;52.428;13.584;2023-10-13T00:12:30;8.27;;;2.97;;
23015;SDS011;11674;52.428;13.584;2023-10-13T00:17:37;10.90;;;2.88;;
23015;SDS011;11674;52.428;13.584;2023-10-13T00:22:44;9.73;;;2.70;;
23015;SDS011;11674;52.428;13.584;2023-10-13T00:27:51;7.55;;;3.53;;
23015;SDS011;11674;52.428;13.584;2023-10-13T00:32:58;11.30;;;2.83;;
23015;SDS011;11674;52.428;13.584;2023-10-13T00:38:06;6.00;;;2.72;;
23015;SDS011;11674;52.428;13.584;2023-10-13T00:43:13;7.10;;;3.42;;
23015;SDS011;11674;52.428;13.584;2023-10-13T00:48:22;4.40;;;2.58;;
23015;SDS011;11674;52.428;13.584;2023-10-13T00:53:37;6.32;;;2.70;;
23015;SDS011;11674;52.428;13.584;2023-10-13T00:58:47;26.85;;;14.57;;
23015;SDS011;11674;52.428;13.584;2023-10-13T01:03:54;7.40;;;4.10;;
23015;SDS011;11674;52.428;13.584;2023-10-13T01:09:08;7.95;;;2.90;;
23015;SDS011;11674;52.428;13.584;2023-10-13T01:14:16;5.25;;;2.58;;
23015;SDS011;11674;52.428;13.584;2023-10-13T01:19:23;6.13;;;2.55;;
23015;SDS011;11674;52.428;13.584;2023-10-13T01:24:32;24.63;;;12.23;;
23015;SDS011;11674;52.428;13.584;2023-10-13T01:29:39;7.28;;;3.40;;
23015;SDS011;11674;52.428;13.584;2023-10-13T01:34:46;11.93;;;3.67;;
23015;SDS011;11674;52.428;13.584;2023-10-13T01:39:56;10.75;;;3.35;;
23015;SDS011;11674;52.428;13.584;2023-10-13T01:45:02;10.48;;;3.30;;
23015;SDS011;11674;52.428;13.584;2023-10-13T01:50:12;8.95;;;3.10;;
23015;SDS011;11674;52.428;13.584;2023-10-13T01:55:21;9.75;;;4.28;;
23015;SDS011;11674;52.428;13.584;2023-10-13T02:00:31;12.55;;;4.68;;
23015;SDS011;11674;52.428;13.584;2023-10-13T02:05:37;9.77;;;3.97;;
23015;SDS011;11674;52.428;13.584;2023-10-13T02:10:44;15.90;;;5.40;;
23015;SDS011;11674;52.428;13.584;2023-10-13T02:15:55;10.15;;;4.03;;
23015;SDS011;11674;52.428;13.584;2023-10-13T02:21:03;10.10;;;4.07;;
23015;SDS011;11674;52.428;13.584;2023-10-13T02:26:11;17.58;;;7.78;;
23015;SDS011;11674;52.428;13.584;2023-10-13T02:31:18;14.90;;;5.40;;
23015;SDS011;11674;52.428;13.584;2023-10-13T02:36:25;9.80;;;5.55;;
23015;SDS011;11674;52.428;13.584;2023-10-13T02:41:33;16.00;;;7.28;;
23015;SDS011;11674;52.428;13.584;2023-10-13T02:46:40;11.02;;;4.60;;
23015;SDS011;11674;52.428;13.584;2023-10-13T02:51:47;12.48;;;5.45;;
23015;SDS011;11674;52.428;13.584;2023-10-13T02:56:54;9.75;;;6.20;;
23015;SDS011;11674;52.428;13.584;2023-10-13T03:02:02;16.48;;;7.00;;
23015;SDS011;11674;52.428;13.584;2023-10-13T03:07:08;10.27;;;6.25;;
23015;SDS011;11674;52.428;13.584;2023-10-13T03:12:16;12.00;;;6.38;;
23015;SDS011;11674;52.428;13.584;2023-10-13T03:17:23;12.80;;;6.82;;
23015;SDS011;11674;52.428;13.584;2023-10-13T03:22:31;15.68;;;7.43;;
23015;SDS011;11674;52.428;13.584;2023-10-13T03:27:37;16.67;;;7.60;;
23015;SDS011;11674;52.428;13.584;2023-10-13T03:32:44;12.98;;;7.43;;
23015;SDS011;11674;52.428;13.584;2023-10-13T03:37:51;16.25;;;7.57;;
23015;SDS011;11674;52.428;13.584;2023-10-13T03:42:58;19.63;;;8.75;;
23015;SDS011;11674;52.428;13.584;2023-10-13T03:48:06;19.25;;;8.10;;
23015;SDS011;11674;52.428;13.584;2023-10-13T03:53:13;16.55;;;8.80;;
23015;SDS011;11674;52.428;13.584;2023-10-13T03:58:20;20.85;;;8.93;;
23015;SDS011;11674;52.428;13.584;2023-10-13T04:03:27;16.70;;;9.20;;
23015;SDS011;11674;52.428;13.584;2023-10-13T04:08:34;15.68;;;9.38;;
23015;SDS011;11674;52.428;13.584;2023-10-13T04:13:44;19.70;;;10.02;;
23015;SDS011;11674;52.428;13.584;2023-10-13T04:18:51;19.17;;;10.13;;
23015;SDS011;11674;52.428;13.584;2023-10-13T04:23:58;19.58;;;9.98;;
23015;SDS011;11674;52.428;13.584;2023-10-13T04:29:05;18.30;;;10.32;;
23015;SDS011;11674;52.428;13.584;2023-10-13T04:34:12;19.45;;;10.35;;
23015;SDS011;11674;52.428;13.584;2023-10-13T04:39:19;20.77;;;11.07;;
23015;SDS011;11674;52.428;13.584;2023-10-13T04:44:26;22.48;;;11.15;;
23015;SDS011;11674;52.428;13.584;2023-10-13T04:49:34;16.73;;;10.77;;
23015;SDS011;11674;52.428;13.584;2023-10-13T04:54:45;23.50;;;11.07;;
23015;SDS011;11674;52.428;13.584;2023-10-13T04:59:52;24.15;;;11.63;;
23015;SDS011;11674;52.428;13.584;2023-10-13T05:04:59;21.80;;;11.88;;
23015;SDS011;11674;52.428;13.584;2023-10-13T05:10:06;25.25;;;11.75;;
23015;SDS011;11674;52.428;13.584;2023-10-13T05:15:13;21.73;;;12.20;;
23015;SDS011;11674;52.428;13.584;2023-10-13T05:20:20;19.50;;;11.48;;
23015;SDS011;11674;52.428;13.584;2023-10-13T05:25:27;23.35;;;12.30;;
23015;SDS011;11674;52.428;13.584;2023-10-13T05:30:34;20.17;;;11.65;;
23015;SDS011;11674;52.428;13.584;2023-10-13T05:35:41;21.02;;;11.68;;
23015;SDS011;11674;52.428;13.584;2023-10-13T05:40:55;21.58;;;12.07;;
23015;SDS011;11674;52.428;13.584;2023-10-13T05:46:03;27.40;;;12.45;;
23015;SDS011;11674;52.428;13.584;2023-10-13T05:51:10;22.38;;;12.43;;
23015;SDS011;11674;52.428;13.584;2023-10-13T05:56:17;25.75;;;11.85;;
23015;SDS011;11674;52.428;13.584;2023-10-13T06:01:24;21.15;;;11.93;;
23015;SDS011;11674;52.428;13.584;2023-10-13T06:06:31;19.35;;;11.82;;
23015;SDS011;11674;52.428;13.584;2023-10-13T06:11:38;19.42;;;11.77;;
23015;SDS011;11674;52.428;13.584;2023-10-13T06:16:45;28.08;;;11.35;;
23015;SDS011;11674;52.428;13.584;2023-10-13T06:21:52;20.80;;;11.15;;
23015;SDS011;11674;52.428;13.584;2023-10-13T06:26:59;22.33;;;11.70;;
23015;SDS011;11674;52.428;13.584;2023-10-13T06:32:06;29.55;;;11.30;;
23015;SDS011;11674;52.428;13.584;2023-10-13T06:37:15;23.13;;;11.65;;
23015;SDS011;11674;52.428;13.584;2023-10-13T06:42:23;17.67;;;10.27;;
23015;SDS011;11674;52.428;13.584;2023-10-13T06:47:29;28.10;;;11.32;;
23015;SDS011;11674;52.428;13.584;2023-10-13T06:52:39;19.35;;;10.95;;
23015;SDS011;11674;52.428;13.584;2023-10-13T06:57:46;15.50;;;10.38;;
23015;SDS011;11674;52.428;13.584;2023-10-13T07:02:52;17.70;;;10.07;;
23015;SDS011;11674;52.428;13.584;2023-10-13T07:08:00;17.15;;;11.10;;
23015;SDS011;11674;52.428;13.584;2023-10-13T07:13:06;17.35;;;10.68;;
23015;SDS011;11674;52.428;13.584;2023-10-13T07:18:14;14.32;;;9.85;;
23015;SDS011;11674;52.428;13.584;2023-10-13T07:23:21;17.50;;;9.48;;
23015;SDS011;11674;52.428;13.584;2023-10-13T07:28:29;15.25;;;10.27;;
23015;SDS011;11674;52.428;13.584;2023-10-13T07:33:43;16.73;;;9.73;;
23015;SDS011;11674;52.428;13.584;2023-10-13T07:38:50;14.57;;;8.88;;
23015;SDS011;11674;52.428;13.584;2023-10-13T07:43:57;17.15;;;8.68;;
23015;SDS011;11674;52.428;13.584;2023-10-13T07:49:04;12.50;;;7.90;;
23015;SDS011;11674;52.428;13.584;2023-10-13T07:54:13;17.20;;;8.30;;
23015;SDS011;11674;52.428;13.584;2023-10-13T07:59:20;15.00;;;7.93;;
23015;SDS011;11674;52.428;13.584;2023-10-13T08:04:29;17.27;;;7.55;;
23015;SDS011;11674;52.428;13.584;2023-10-13T08:09:36;10.23;;;6.68;;
23015;SDS011;11674;52.428;13.584;2023-10-13T08:14:47;11.43;;;7.20;;
23015;SDS011;11674;52.428;13.584;2023-10-13T08:19:54;12.18;;;6.93;;
23015;SDS011;11674;52.428;13.584;2023-10-13T08:25:01;17.80;;;6.95;;
23015;SDS011;11674;52.428;13.584;2023-10-13T08:30:09;10.90;;;6.40;;
23015;SDS011;11674;52.428;13.584;2023-10-13T08:35:15;29.13;;;7.95;;
23015;SDS011;11674;52.428;13.584;2023-10-13T08:40:23;11.68;;;6.70;;
23015;SDS011;11674;52.428;13.584;2023-10-13T08:45:29;10.25;;;6.18;;
23015;SDS011;11674;52.428;13.584;2023-10-13T08:55:44;12.30;;;5.90;;
23015;SDS011;11674;52.428;13.584;2023-10-13T09:00:51;9.48;;;5.80;;
23015;SDS011;11674;52.428;13.584;2023-10-13T09:05:59;9.07;;;5.63;;
23015;SDS011;11674;52.428;13.584;2023-10-13T09:11:06;9.00;;;5.70;;
23015;SDS011;11674;52.428;13.584;2023-10-13T09:16:14;9.82;;;5.75;;
23015;SDS011;11674;52.428;13.584;2023-10-13T09:21:21;9.15;;;5.90;;
23015;SDS011;11674;52.428;13.584;2023-10-13T09:26:33;11.15;;;6.47;;
23015;SDS011;11674;52.428;13.584;2023-10-13T09:31:41;31.95;;;7.70;;
23015;SDS011;11674;52.428;13.584;2023-10-13T09:36:47;7.60;;;5.25;;
23015;SDS011;11674;52.428;13.584;2023-10-13T09:41:56;11.98;;;5.68;;
23015;SDS011;11674;52.428;13.584;2023-10-13T09:47:03;11.65;;;5.80;;
23015;SDS011;11674;52.428;13.584;2023-10-13T09:52:16;16.08;;;5.97;;
23015;SDS011;11674;52.428;13.584;2023-10-13T09:57:25;8.85;;;5.07;;
23015;SDS011;11674;52.428;13.584;2023-10-13T10:02:35;10.83;;;5.47;;
23015;SDS011;11674;52.428;13.584;2023-10-13T10:07:42;9.48;;;4.93;;
23015;SDS011;11674;52.428;13.584;2023-10-13T10:12:52;7.82;;;5.53;;
23015;SDS011;11674;52.428;13.584;2023-10-13T10:18:17;11.23;;;7.38;;
23015;SDS011;11674;52.428;13.584;2023-10-13T10:23:28;9.07;;;5.93;;
23015;SDS011;11674;52.428;13.584;2023-10-13T10:28:35;13.10;;;5.47;;
23015;SDS011;11674;52.428;13.584;2023-10-13T10:33:46;10.57;;;5.63;;
23015;SDS011;11674;52.428;13.584;2023-10-13T10:38:56;9.70;;;4.97;;
23015;SDS011;11674;52.428;13.584;2023-10-13T10:44:09;13.37;;;8.60;;
23015;SDS011;11674;52.428;13.584;2023-10-13T10:49:17;17.45;;;9.95;;
23015;SDS011;11674;52.428;13.584;2023-10-13T10:54:25;14.38;;;6.05;;
23015;SDS011;11674;52.428;13.584;2023-10-13T10:59:36;11.27;;;5.97;;
23015;SDS011;11674;52.428;13.584;2023-10-13T11:04:43;10.80;;;5.63;;
23015;SDS011;11674;52.428;13.584;2023-10-13T11:10:06;19.20;;;6.38;;
23015;SDS011;11674;52.428;13.584;2023-10-13T11:15:17;11.43;;;5.22;;
23015;SDS011;11674;52.428;13.584;2023-10-13T11:20:24;9.55;;;6.15;;
23015;SDS011;11674;52.428;13.584;2023-10-13T11:25:31;10.38;;;6.03;;
23015;SDS011;11674;52.428;13.584;2023-10-13T11:30:38;10.68;;;6.30;;
23015;SDS011;11674;52.428;13.584;2023-10-13T11:35:45;15.25;;;6.53;;
23015;SDS011;11674;52.428;13.584;2023-10-13T11:40:59;12.63;;;6.15;;
23015;SDS011;11674;52.428;13.584;2023-10-13T11:46:22;13.63;;;7.32;;
23015;SDS011;11674;52.428;13.584;2023-10-13T11:51:30;13.98;;;6.05;;
23015;SDS011;11674;52.428;13.584;2023-10-13T11:56:37;10.93;;;6.10;;
23015;SDS011;11674;52.428;13.584;2023-10-13T12:01:46;13.82;;;5.78;;
23015;SDS011;11674;52.428;13.584;2023-10-13T12:06:54;16.42;;;6.28;;
23015;SDS011;11674;52.428;13.584;2023-10-13T12:12:01;13.15;;;6.35;;
23015;SDS011;11674;52.428;13.584;2023-10-13T12:17:08;14.02;;;6.90;;
23015;SDS011;11674;52.428;13.584;2023-10-13T12:22:15;11.82;;;5.80;;
23015;SDS011;11674;52.428;13.584;2023-10-13T12:27:22;13.75;;;5.95;;
23015;SDS011;11674;52.428;13.584;2023-10-13T12:32:29;13.05;;;5.35;;
23015;SDS011;11674;52.428;13.584;2023-10-13T12:37:36;11.32;;;5.20;;
23015;SDS011;11674;52.428;13.584;2023-10-13T12:42:45;11.00;;;5.05;;
23015;SDS011;11674;52.428;13.584;2023-10-13T12:47:54;12.45;;;5.45;;
23015;SDS011;11674;52.428;13.584;2023-10-13T12:53:01;14.88;;;4.82;;
23015;SDS011;11674;52.428;13.584;2023-10-13T12:58:08;13.60;;;4.97;;
23015;SDS011;11674;52.428;13.584;2023-10-13T13:03:15;15.57;;;5.00;;
23015;SDS011;11674;52.428;13.584;2023-10-13T13:08:22;16.48;;;5.05;;
23015;SDS011;11674;52.428;13.584;2023-10-13T13:13:29;16.55;;;5.22;;
23015;SDS011;11674;52.428;13.584;2023-10-13T13:18:36;15.30;;;4.88;;
23015;SDS011;11674;52.428;13.584;2023-10-13T13:23:43;11.38;;;4.82;;
23015;SDS011;11674;52.428;13.584;2023-10-13T13:28:50;13.07;;;5.03;;
23015;SDS011;11674;52.428;13.584;2023-10-13T13:33:57;11.13;;;4.57;;
23015;SDS011;11674;52.428;13.584;2023-10-13T13:39:04;13.40;;;4.80;;
23015;SDS011;11674;52.428;13.584;2023-10-13T13:44:11;17.45;;;5.22;;
23015;SDS011;11674;52.428;13.584;2023-10-13T13:49:20;13.20;;;5.00;;
23015;SDS011;11674;52.428;13.584;2023-10-13T13:54:27;10.63;;;4.72;;
23015;SDS011;11674;52.428;13.584;2023-10-13T13:59:34;17.70;;;4.80;;
23015;SDS011;11674;52.428;13.584;2023-10-13T14:04:41;14.02;;;5.18;;
23015;SDS011;11674;52.428;13.584;2023-10-13T14:09:48;14.27;;;4.65;;
23015;SDS011;11674;52.428;13.584;2023-10-13T14:14:55;14.43;;;4.47;;
23015;SDS011;11674;52.428;13.584;2023-10-13T14:20:03;14.77;;;4.57;;
23015;SDS011;11674;52.428;13.584;2023-10-13T14:25:10;8.60;;;4.10;;
23015;SDS011;11674;52.428;13.584;2023-10-13T14:30:17;8.07;;;3.97;;
23015;SDS011;11674;52.428;13.584;2023-10-13T14:35:24;17.88;;;4.78;;
23015;SDS011;11674;52.428;13.584;2023-10-13T14:40:34;9.25;;;4.40;;
23015;SDS011;11674;52.428;13.584;2023-10-13T14:45:48;13.50;;;4.85;;
23015;SDS011;11674;52.428;13.584;2023-10-13T14:50:55;10.73;;;4.53;;
23015;SDS011;11674;52.428;13.584;2023-10-13T14:56:02;13.52;;;4.65;;
23015;SDS011;11674;52.428;13.584;2023-10-13T15:01:16;13.10;;;4.95;;
23015;SDS011;11674;52.428;13.584;2023-10-13T15:06:24;10.30;;;4.88;;
23015;SDS011;11674;52.428;13.584;2023-10-13T15:11:32;15.85;;;5.30;;
23015;SDS011;11674;52.428;13.584;2023-10-13T15:16:39;16.52;;;4.65;;
23015;SDS011;11674;52.428;13.584;2023-10-13T15:21:46;15.77;;;4.93;;
23015;SDS011;11674;52.428;13.584;2023-10-13T15:26:53;9.45;;;4.43;;
23015;SDS011;11674;52.428;13.584;2023-10-13T15:32:00;13.35;;;5.25;;
23015;SDS011;11674;52.428;13.584;2023-10-13T15:37:07;15.18;;;5.60;;
23015;SDS011;11674;52.428;13.584;2023-10-13T15:42:14;18.10;;;5.32;;
23015;SDS011;11674;52.428;13.584;2023-10-13T15:47:21;11.80;;;4.78;;
23015;SDS011;11674;52.428;13.584;2023-10-13T15:52:28;11.00;;;5.13;;
23015;SDS011;11674;52.428;13.584;2023-10-13T15:57:35;15.88;;;5.53;;
23015;SDS011;11674;52.428;13.584;2023-10-13T16:02:42;16.48;;;5.00;;
23015;SDS011;11674;52.428;13.584;2023-10-13T16:07:52;14.82;;;5.18;;
23015;SDS011;11674;52.428;13.584;2023-10-13T16:12:59;11.15;;;4.90;;
23015;SDS011;11674;52.428;13.584;2023-10-13T16:18:06;13.40;;;4.53;;
23015;SDS011;11674;52.428;13.584;2023-10-13T16:23:13;19.40;;;6.93;;
23015;SDS011;11674;52.428;13.584;2023-10-13T16:28:20;18.60;;;5.55;;
23015;SDS011;11674;52.428;13.584;2023-10-13T16:33:27;16.10;;;5.55;;
23015;SDS011;11674;52.428;13.584;2023-10-13T16:38:34;14.75;;;5.50;;
23015;SDS011;11674;52.428;13.584;2023-10-13T16:43:44;14.93;;;5.30;;
23015;SDS011;11674;52.428;13.584;2023-10-13T16:48:51;13.05;;;4.88;;
23015;SDS011;11674;52.428;13.584;2023-10-13T16:54:01;11.05;;;5.10;;
23015;SDS011;11674;52.428;13.584;2023-10-13T16:59:08;12.10;;;4.50;;
23015;SDS011;11674;52.428;13.584;2023-10-13T17:04:15;10.80;;;5.25;;
23015;SDS011;11674;52.428;13.584;2023-10-13T17:09:22;12.90;;;4.93;;
23015;SDS011;11674;52.428;13.584;2023-10-13T17:14:29;15.52;;;5.00;;
23015;SDS011;11674;52.428;13.584;2023-10-13T17:19:36;11.65;;;4.55;;
23015;SDS011;11674;52.428;13.584;2023-10-13T17:24:43;10.45;;;5.07;;
23015;SDS011;11674;52.428;13.584;2023-10-13T17:29:50;11.00;;;5.43;;
23015;SDS011;11674;52.428;13.584;2023-10-13T17:34:57;10.73;;;5.00;;
23015;SDS011;11674;52.428;13.584;2023-10-13T17:40:04;11.13;;;5.00;;
23015;SDS011;11674;52.428;13.584;2023-10-13T17:45:11;9.70;;;4.30;;
23015;SDS011;11674;52.428;13.584;2023-10-13T17:50:18;15.77;;;4.75;;
23015;SDS011;11674;52.428;13.584;2023-10-13T17:55:25;13.52;;;4.82;;
23015;SDS011;11674;52.428;13.584;2023-10-13T18:00:32;14.25;;;6.35;;
23015;SDS011;11674;52.428;13.584;2023-10-13T18:05:39;15.80;;;5.45;;
23015;SDS011;11674;52.428;13.584;2023-10-13T18:10:51;10.50;;;5.40;;
23015;SDS011;11674;52.428;13.584;2023-10-13T18:15:59;10.15;;;4.85;;
23015;SDS011;11674;52.428;13.584;2023-10-13T18:21:06;13.25;;;4.85;;
23015;SDS011;11674;52.428;13.584;2023-10-13T18:26:13;10.20;;;4.50;;
23015;SDS011;11674;52.428;13.584;2023-10-13T18:31:23;9.50;;;4.35;;
23015;SDS011;11674;52.428;13.584;2023-10-13T18:36:30;13.95;;;4.85;;
23015;SDS011;11674;52.428;13.584;2023-10-13T18:41:37;12.93;;;7.30;;
23015;SDS011;11674;52.428;13.584;2023-10-13T18:46:44;13.52;;;4.60;;
23015;SDS011;11674;52.428;13.584;2023-10-13T18:51:51;17.42;;;4.53;;
23015;SDS011;11674;52.428;13.584;2023-10-13T18:56:58;8.95;;;4.70;;
23015;SDS011;11674;52.428;13.584;2023-10-13T19:02:05;12.82;;;4.45;;
23015;SDS011;11674;52.428;13.584;2023-10-13T19:07:12;11.82;;;4.63;;
23015;SDS011;11674;52.428;13.584;2023-10-13T19:12:19;12.18;;;4.55;;
23015;SDS011;11674;52.428;13.584;2023-10-13T19:17:26;8.73;;;4.25;;
23015;SDS011;11674;52.428;13.584;2023-10-13T19:22:33;11.27;;;3.90;;
23015;SDS011;11674;52.428;13.584;2023-10-13T19:27:40;11.98;;;4.43;;
23015;SDS011;11674;52.428;13.584;2023-10-13T19:32:47;14.13;;;4.90;;
23015;SDS011;11674;52.428;13.584;2023-10-13T19:37:54;11.23;;;4.53;;
23015;SDS011;11674;52.428;13.584;2023-10-13T19:43:02;18.70;;;4.10;;
23015;SDS011;11674;52.428;13.584;2023-10-13T19:48:09;12.07;;;4.30;;
23015;SDS011;11674;52.428;13.584;2023-10-13T19:53:16;8.98;;;3.78;;
23015;SDS011;11674;52.428;13.584;2023-10-13T19:58:23;10.05;;;5.47;;
23015;SDS011;11674;52.428;13.584;2023-10-13T20:03:30;13.20;;;3.72;;
23015;SDS011;11674;52.428;13.584;2023-10-13T20:08:37;8.68;;;4.00;;
23015;SDS011;11674;52.428;13.584;2023-10-13T20:13:45;19.17;;;5.40;;
23015;SDS011;11674;52.428;13.584;2023-10-13T20:18:53;9.00;;;4.22;;
23015;SDS011;11674;52.428;13.584;2023-10-13T20:24:02;8.35;;;3.95;;
23015;SDS011;11674;52.428;13.584;2023-10-13T20:29:09;12.30;;;4.40;;
23015;SDS011;11674;52.428;13.584;2023-10-13T20:34:17;10.07;;;4.05;;
23015;SDS011;11674;52.428;13.584;2023-10-13T20:39:24;11.07;;;3.95;;
23015;SDS011;11674;52.428;13.584;2023-10-13T20:44:31;9.35;;;4.07;;
23015;SDS011;11674;52.428;13.584;2023-10-13T20:49:38;9.30;;;4.40;;
23015;SDS011;11674;52.428;13.584;2023-10-13T20:54:45;14.80;;;7.22;;
23015;SDS011;11674;52.428;13.584;2023-10-13T20:59:52;9.13;;;4.25;;
23015;SDS011;11674;52.428;13.584;2023-10-13T21:04:59;10.50;;;3.95;;
23015;SDS011;11674;52.428;13.584;2023-10-13T21:10:09;8.10;;;4.10;;
23015;SDS011;11674;52.428;13.584;2023-10-13T21:15:16;12.75;;;5.55;;
23015;SDS011;11674;52.428;13.584;2023-10-13T21:20:24;11.93;;;5.75;;
23015;SDS011;11674;52.428;13.584;2023-10-13T21:25:36;14.98;;;5.65;;
23015;SDS011;11674;52.428;13.584;2023-10-13T21:30:46;11.90;;;4.53;;
23015;SDS011;11674;52.428;13.584;2023-10-13T21:35:53;12.25;;;4.22;;
23015;SDS011;11674;52.428;13.584;2023-10-13T21:41:03;9.00;;;4.10;;
23015;SDS011;11674;52.428;13.584;2023-10-13T21:46:11;11.88;;;4.03;;
23015;SDS011;11674;52.428;13.584;2023-10-13T21:51:20;8.85;;;4.30;;
23015;SDS011;11674;52.428;13.584;2023-10-13T21:56:27;10.30;;;4.30;;
23015;SDS011;11674;52.428;13.584;2023-10-13T22:01:34;9.55;;;4.40;;
23015;SDS011;11674;52.428;13.584;2023-10-13T22:06:41;15.18;;;4.65;;
23015;SDS011;11674;52.428;13.584;2023-10-13T22:11:48;9.50;;;4.15;;
23015;SDS011;11674;52.428;13.584;2023-10-13T22:16:55;12.80;;;4.15;;
23015;SDS011;11674;52.428;13.584;2023-10-13T22:22:02;10.02;;;4.07;;
23015;SDS011;11674;52.428;13.584;2023-10-13T22:27:11;7.82;;;3.95;;
23015;SDS011;11674;52.428;13.584;2023-10-13T22:32:18;14.93;;;4.30;;
23015;SDS011;11674;52.428;13.584;2023-10-13T22:37:25;8.07;;;3.60;;
23015;SDS011;11674;52.428;13.584;2023-10-13T22:42:32;7.78;;;4.40;;
23015;SDS011;11674;52.428;13.584;2023-10-13T22:47:39;8.90;;;5.40;;
23015;SDS011;11674;52.428;13.584;2023-10-13T22:52:46;18.38;;;6.80;;
23015;SDS011;11674;52.428;13.584;2023-10-13T22:57:54;7.90;;;4.65;;
23015;SDS011;11674;52.428;13.584;2023-10-13T23:03:02;11.93;;;5.03;;
23015;SDS011;11674;52.428;13.584;2023-10-13T23:08:09;13.63;;;5.63;;
23015;SDS011;11674;52.428;13.584;2023-10-13T23:13:16;10.70;;;4.45;;
23015;SDS011;11674;52.428;13.584;2023-10-13T23:18:24;8.23;;;4.47;;
23015;SDS011;11674;52.428;13.584;2023-10-13T23:23:31;10.50;;;3.97;;
23015;SDS011;11674;52.428;13.584;2023-10-13T23:28:38;8.07;;;4.55;;
23015;SDS011;11674;52.428;13.584;2023-10-13T23:33:48;12.30;;;3.75;;
23015;SDS011;11674;52.428;13.584;2023-10-13T23:38:55;14.77;;;3.85;;
23015;SDS011;11674;52.428;13.584;2023-10-13T23:44:02;12.73;;;4.20;;
23015;SDS011;11674;52.428;13.584;2023-10-13T23:49:12;9.95;;;4.88;;
23015;SDS011;11674;52.428;13.584;2023-10-13T23:54:20;5.18;;;3.17;;
23015;SDS011;11674;52.428;13.584;2023-10-13T23:59:27;8.35;;;3.50;;
